SBRFTNCM

Guest
Details From SBRF - Recife Intl
To TNCM - St Maarten - Princess Juliana Intl
Flight Number -
Tags decoded
Created
Modified
Stats Distance 2,317 nm / 4,291 km
Max Altitude 0 ft / 0 m
Waypoints 7
Social Downloads 0
Likes 0
Share VATSIM

Download

Looking for another format? Having issues loading an existing format? Contact us
Advertisement - Login to hide

Notes

Requested: SBRF CPG W46 MSS UW33 ISUPI UM791 BGI UA632 ANU UB520 ELOPO TNCM Unmatched points: UW33 ISUPI UM791 UB520

Route

SBRF CPG W46 MSS BGI UA632 ANU ELOPO TNCM

ID Type Via Altitude Latitude Longitude Leg Dist Tot Dist Heading (true) Name
O SBRF APT - 0 ft / 0 m -8.12790˚ -34.92298˚ - 0 nm - Recife Intl
CPG NDB - 0 ft / 0 m -7.26601˚ -35.89267˚ 77 nm 77 nm 312° / 312° CAMPINA GRANDE NDB
MSS NDB W46 (AWY-LO) 0 ft / 0 m -5.19350˚ -37.36450˚ 152 nm 229 nm 325° / 325° MOSSORO NDB
BGI NDB - 0 ft / 0 m 13.07133˚ -59.49053˚ 1716 nm 1946 nm 310° / 308° ADAMS NDB
ANU NDB UA632 (AWY-HI) 0 ft / 0 m 17.12588˚ -61.80017˚ 277 nm 2224 nm 331° / 331° V C BIRD NDB
ELOPO FIX - 0 ft / 0 m 17.65006˚ -62.55439˚ 53 nm 2277 nm 306° / 306° -
O TNCM APT - 0 ft / 0 m 18.04089˚ -63.10897˚ 39 nm 2316 nm 307° / 306° St Maarten - Princess Juliana Intl

Altitude Profile

Advertisement - Login to hide

Weather


0- 5 10 15 20 25 30 35+ Temperature / ° C

Clouds and Precipitation
Forecast for 2018-05-23 18:00 UTC. Updated 2 hours ago

Ground ~20,000 ft ~40,000 ft Winds

SBRF

Details ICAO SBRF (REC)
Name Recife Intl
Region Brazil
Timezone America/Recife (UTC-3.0)
Stats Elevation 33 ft / 10 m (AMSL)
Location -8.127896° -34.922981°
Runways 2
Magnetic Variation 22.074° W

METAR

SBRF 231900Z 13010KT 9999 SCT023 SCT060 27/23 Q1014

Decode

TAF

TAF SBRF 231600Z 2318/2418 13005KT 8000 SCT023 TN25/2407Z TX30/2415Z BECMG 2410/2412 13012KT RMK PBO

Decode

Departure Runways

ID Width Length Bearing (true) Bearing (mag) Surface Threshold Offset Overrun Length
01 98 ft / 30 m 4,979 ft / 1,518 m 304.20° 326.27° Asphalt 300 ft / 91 m 0 ft / 0 m
18 148 ft / 45 m 9,915 ft / 3,022 m 161.91° 183.98° Asphalt 1,225 ft / 373 m 0 ft / 0 m
19 98 ft / 30 m 4,979 ft / 1,518 m 124.20° 146.27° Asphalt 300 ft / 91 m 0 ft / 0 m
36 148 ft / 45 m 9,915 ft / 3,022 m 341.91° 3.98° Asphalt 0 ft / 0 m 350 ft / 107 m

TNCM

Details ICAO TNCM (SXM)
Name St Maarten - Princess Juliana Intl
Region Caribbean Netherlands, Aruba, Curaçao, Sint Maarten
Timezone Unknown (UTC+0.0)
Stats Elevation 12 ft / 4 m (AMSL)
Location 18.040889° -63.108974°
Runways 1
Magnetic Variation 14.337° W

METAR

TNCM 231900Z 09011KT 060V130 9999 SCT020 29/21 Q1018 NOSIG RMK A3006

Decode

TAF

TAF TNCM 231733Z 2318/2418 09012KT P6SM SCT020

Decode

Destination Runways

ID Width Length Bearing (true) Bearing (mag) Surface Threshold Offset Overrun Length
10 148 ft / 45 m 7,464 ft / 2,275 m 81.43° 95.77° Asphalt 0 ft / 0 m 151 ft / 46 m
28 148 ft / 45 m 7,464 ft / 2,275 m 261.44° 275.78° Asphalt 397 ft / 121 m 0 ft / 0 m

Popular Alternatives